createdAt,value
2023-05-10T07:17:45.767Z,80.75
2023-05-10T07:20:13.872Z,79.50
2023-05-10T07:22:41.064Z,77.38
2023-05-10T07:25:08.926Z,77.44
2023-05-10T07:27:36.068Z,74.82
2023-05-10T07:30:03.450Z,74.96
2023-05-10T07:32:30.814Z,73.42
2023-05-10T07:34:59.370Z,73.76
2023-05-10T07:37:26.432Z,74.40
2023-05-10T07:39:53.626Z,74.92
2023-05-10T07:42:20.740Z,75.09
2023-05-10T07:44:47.896Z,75.04
2023-05-10T07:47:14.984Z,75.71
2023-05-10T07:49:42.108Z,77.38
2023-05-10T07:52:10.617Z,77.57
2023-05-10T07:54:37.755Z,78.52
2023-05-10T07:57:05.019Z,77.83
2023-05-10T07:59:32.218Z,78.00
2023-05-10T08:01:59.602Z,77.30
2023-05-10T08:04:26.927Z,76.57
2023-05-10T08:06:54.073Z,72.66
2023-05-10T08:09:22.563Z,68.77
2023-05-10T08:11:49.751Z,65.10
2023-05-10T08:14:16.975Z,65.13
2023-05-10T08:16:44.151Z,63.77
2023-05-10T08:19:11.321Z,63.21
2023-05-10T08:21:38.502Z,63.59
2023-05-10T08:24:06.320Z,62.97
2023-05-10T08:26:35.478Z,64.16
2023-05-10T08:29:02.578Z,63.14
2023-05-10T08:31:29.940Z,63.64
2023-05-10T08:33:57.116Z,62.03
2023-05-10T08:36:24.221Z,61.43
2023-05-10T08:38:52.107Z,61.46
2023-05-10T08:41:20.688Z,62.28
2023-05-10T08:43:49.404Z,60.98
2023-05-10T08:46:17.270Z,61.65
2023-05-10T08:48:44.675Z,62.03
2023-05-10T08:51:12.657Z,61.81
2023-05-10T08:53:39.887Z,60.58
2023-05-10T08:56:07.942Z,61.05
2023-05-10T08:58:35.180Z,63.68
2023-05-10T09:01:03.761Z,60.10
2023-05-10T09:03:31.144Z,59.82
2023-05-10T09:05:58.294Z,59.11
2023-05-10T09:08:26.007Z,58.34
2023-05-10T09:10:53.195Z,56.72
2023-05-10T09:13:20.338Z,58.62
2023-05-10T09:15:54.873Z,58.61
2023-05-10T09:18:24.318Z,57.61
2023-05-10T09:20:52.738Z,57.66
2023-05-10T09:23:19.945Z,57.77
2023-05-10T09:25:47.120Z,55.92
2023-05-10T09:28:14.262Z,55.54
2023-05-10T09:30:41.511Z,56.11
2023-05-10T09:33:08.673Z,55.38
2023-05-10T09:35:37.337Z,56.78
2023-05-10T09:38:05.124Z,55.73
2023-05-10T09:40:32.388Z,54.65
2023-05-10T09:43:00.176Z,52.14
2023-05-10T09:45:28.344Z,54.29
2023-05-10T14:38:06.605Z,51.66
2023-05-10T14:40:35.203Z,52.06
2023-05-10T14:43:02.378Z,52.33
2023-05-10T14:45:29.669Z,52.38
2023-05-10T14:47:56.849Z,52.34
2023-05-10T14:50:35.732Z,51.38
2023-05-10T14:53:03.883Z,52.35
2023-05-10T14:55:35.641Z,52.05
2023-05-10T14:58:03.328Z,49.60
2023-05-10T15:00:31.130Z,45.78
2023-05-10T15:02:59.451Z,44.90
2023-05-10T15:05:26.950Z,42.50
2023-05-10T15:07:54.654Z,44.98
2023-05-10T15:10:21.709Z,46.40
2023-05-10T15:12:50.805Z,47.25
2023-05-10T15:15:18.082Z,47.41
2023-05-10T15:17:45.385Z,48.43
2023-05-10T15:20:12.998Z,48.13
2023-05-10T15:22:40.084Z,48.46
2023-05-10T15:25:07.859Z,50.35
2023-05-10T15:27:37.097Z,42.31
2023-05-10T15:30:07.323Z,45.87
2023-05-10T15:32:35.640Z,48.68
2023-05-10T15:35:02.685Z,51.99
2023-05-10T15:37:29.863Z,55.63
2023-05-10T15:39:57.582Z,52.17
2023-05-10T15:42:24.652Z,51.67
2023-05-10T15:44:52.004Z,51.99
2023-05-10T15:47:20.671Z,52.23
2023-05-10T15:49:47.828Z,52.68
2023-05-10T15:52:15.168Z,52.50
2023-05-10T15:54:42.432Z,52.81
2023-05-10T15:57:09.653Z,53.04
2023-05-10T15:59:36.854Z,53.24
2023-05-10T16:02:04.098Z,53.16
2023-05-10T16:04:32.773Z,52.21
2023-05-10T16:07:00.012Z,54.07
2023-05-10T16:09:27.197Z,54.70
2023-05-10T16:11:54.396Z,55.68
2023-05-10T16:14:21.603Z,56.67
2023-05-10T16:16:48.848Z,56.55
2023-05-10T16:19:16.253Z,56.27
2023-05-10T16:21:46.980Z,55.48
2023-05-10T16:24:14.233Z,55.46
2023-05-10T16:26:41.358Z,55.11
2023-05-10T16:29:08.604Z,54.17
2023-05-10T16:31:35.888Z,53.38
2023-05-10T16:34:03.157Z,53.79
2023-05-10T16:36:30.315Z,54.01
2023-05-10T16:38:58.859Z,52.47
2023-05-10T16:41:25.993Z,52.20
2023-05-10T16:43:53.203Z,52.35
2023-05-10T16:46:20.426Z,51.99
2023-05-10T16:48:47.666Z,51.84
2023-05-10T16:51:14.970Z,51.27
2023-05-10T16:53:42.365Z,50.77
2023-05-10T16:56:10.963Z,50.72
2023-05-10T16:58:39.672Z,48.94
2023-05-10T17:01:06.942Z,38.57
2023-05-10T17:03:34.264Z,42.56
2023-05-10T17:06:01.605Z,43.72
2023-05-10T17:08:28.821Z,32.75
2023-05-10T17:10:56.079Z,28.43
2023-05-10T17:13:24.849Z,30.59
2023-05-10T17:15:52.178Z,28.11
2023-05-10T17:18:19.456Z,29.63
2023-05-10T17:20:46.707Z,27.91
2023-05-10T17:23:13.892Z,29.90
